Impacts TAF Board
For situational awareness. Not to be used for flight planning purposes.
IDs:

KMEM - Memphis Intl, TN, US

Issued at 1125 UTC 23 Mar 2019
Updated at 1219 UTC 23 Mar 2019
Potential Impact None Slight Moderate High
Time<<24/01Z 24/02Z 24/03Z 24/04Z 24/05Z 24/06Z 24/07Z 24/08Z 24/09Z 24/10Z 24/11Z 24/12Z 24/13Z>>
Type PRVL PRVL PRVL PRVL PRVL PRVL PRVL PRVL PRVL PRVL PRVL PRVL PRVL
  [TEMP]  
VIS >6 >6 >6 >6 >6 >6 >6 >6 >6 >6 >6 >6 >6
  [5]  
CIG 150 150 150 150 150 150 150 150 80 80 80 80 80
  [30]  
Cover BKN BKN BKN BKN BKN BKN BKN BKN OVC OVC OVC OVC OVC
  [OVC]  
FltCat VFR VFR VFR VFR VFR VFR VFR VFR VFR VFR VFR VFR VFR
  [MVFR]  
WX -- -- -- -- -- -- -- -- VCSH VCSH VCSH VCSH VCSH
  [-RA]  
WDir 140 140 140 140 140 140 140 140 160 160 160 160 160
[160]
WSpd 5 5 5 5 5 5 5 5 5 5 5 5 5
  [5]  
WGst -- -- -- -- -- -- -- -- -- -- -- -- --
  [--]  
Raw TAF
KMEM 231125Z 2312/2418 10004KT P6SM SCT250
  FM231400 14008KT P6SM FEW150 BKN250
  FM240000 14005KT P6SM BKN150
  FM240900 16005KT P6SM VCSH OVC080
  TEMPO 2413/2417 5SM -RA OVC030


METAR Board
Radar Display
Forecast Discussion
For situational awareness. Not to be used for flight planning purposes.